sensor_id;sensor_type;location;lat;lon;timestamp;temperature;humidity
38860;DHT22;24609;48.316;16.174;2023-02-26T00:00:05;2.40;99.90
38860;DHT22;24609;48.316;16.174;2023-02-26T00:02:34;2.40;99.90
38860;DHT22;24609;48.316;16.174;2023-02-26T00:05:02;2.50;99.90
38860;DHT22;24609;48.316;16.174;2023-02-26T00:07:27;2.50;99.90
38860;DHT22;24609;48.316;16.174;2023-02-26T00:09:54;2.50;99.90
38860;DHT22;24609;48.316;16.174;2023-02-26T00:12:20;2.50;99.90
38860;DHT22;24609;48.316;16.174;2023-02-26T00:14:47;2.50;99.90
38860;DHT22;24609;48.316;16.174;2023-02-26T00:17:32;2.50;99.90
38860;DHT22;24609;48.316;16.174;2023-02-26T00:20:01;2.50;99.90
38860;DHT22;24609;48.316;16.174;2023-02-26T00:22:27;2.50;99.90
38860;DHT22;24609;48.316;16.174;2023-02-26T00:24:53;2.50;99.90
38860;DHT22;24609;48.316;16.174;2023-02-26T00:27:19;2.50;99.90
38860;DHT22;24609;48.316;16.174;2023-02-26T00:29:45;2.50;99.90
38860;DHT22;24609;48.316;16.174;2023-02-26T00:32:11;2.50;99.90
38860;DHT22;24609;48.316;16.174;2023-02-26T00:34:37;2.50;99.90
38860;DHT22;24609;48.316;16.174;2023-02-26T00:37:14;2.50;99.90
38860;DHT22;24609;48.316;16.174;2023-02-26T00:42:11;2.50;99.90
38860;DHT22;24609;48.316;16.174;2023-02-26T00:44:37;2.50;99.90
38860;DHT22;24609;48.316;16.174;2023-02-26T00:52:36;2.40;99.90
38860;DHT22;24609;48.316;16.174;2023-02-26T00:55:03;2.40;99.90
38860;DHT22;24609;48.316;16.174;2023-02-26T00:57:29;2.30;99.90
38860;DHT22;24609;48.316;16.174;2023-02-26T00:59:55;2.30;99.90
38860;DHT22;24609;48.316;16.174;2023-02-26T01:02:21;2.30;99.90
38860;DHT22;24609;48.316;16.174;2023-02-26T01:04:47;2.30;99.90
38860;DHT22;24609;48.316;16.174;2023-02-26T01:07:13;2.30;99.90
38860;DHT22;24609;48.316;16.174;2023-02-26T01:09:39;2.30;99.90
38860;DHT22;24609;48.316;16.174;2023-02-26T01:12:08;2.20;99.90
38860;DHT22;24609;48.316;16.174;2023-02-26T01:14:35;2.20;99.90
38860;DHT22;24609;48.316;16.174;2023-02-26T01:17:24;2.20;99.90
38860;DHT22;24609;48.316;16.174;2023-02-26T01:22:27;2.00;99.90
38860;DHT22;24609;48.316;16.174;2023-02-26T01:25:05;2.00;99.90
38860;DHT22;24609;48.316;16.174;2023-02-26T01:27:32;1.90;99.90
38860;DHT22;24609;48.316;16.174;2023-02-26T01:29:58;1.80;99.90
38860;DHT22;24609;48.316;16.174;2023-02-26T01:32:41;1.80;99.90
38860;DHT22;24609;48.316;16.174;2023-02-26T01:35:12;1.70;99.90
38860;DHT22;24609;48.316;16.174;2023-02-26T01:40:28;1.70;99.90
38860;DHT22;24609;48.316;16.174;2023-02-26T01:43:50;1.60;99.90
38860;DHT22;24609;48.316;16.174;2023-02-26T01:51:16;1.60;99.90
38860;DHT22;24609;48.316;16.174;2023-02-26T01:53:42;1.60;99.90
38860;DHT22;24609;48.316;16.174;2023-02-26T01:56:16;1.60;99.90
38860;DHT22;24609;48.316;16.174;2023-02-26T01:58:43;1.60;99.90
38860;DHT22;24609;48.316;16.174;2023-02-26T02:01:11;1.60;99.90
38860;DHT22;24609;48.316;16.174;2023-02-26T02:03:38;1.70;99.90
38860;DHT22;24609;48.316;16.174;2023-02-26T02:06:08;1.70;99.90
38860;DHT22;24609;48.316;16.174;2023-02-26T02:08:36;1.80;99.90
38860;DHT22;24609;48.316;16.174;2023-02-26T02:11:04;1.80;99.90
38860;DHT22;24609;48.316;16.174;2023-02-26T02:28:30;1.90;99.90
38860;DHT22;24609;48.316;16.174;2023-02-26T02:33:41;1.90;99.90
38860;DHT22;24609;48.316;16.174;2023-02-26T02:38:57;1.90;99.90
38860;DHT22;24609;48.316;16.174;2023-02-26T02:41:29;1.90;99.90
38860;DHT22;24609;48.316;16.174;2023-02-26T02:43:59;1.90;99.90
38860;DHT22;24609;48.316;16.174;2023-02-26T02:46:30;1.90;99.90
38860;DHT22;24609;48.316;16.174;2023-02-26T02:49:24;1.90;99.90
38860;DHT22;24609;48.316;16.174;2023-02-26T02:52:07;1.90;99.90
38860;DHT22;24609;48.316;16.174;2023-02-26T02:54:43;1.90;99.90
38860;DHT22;24609;48.316;16.174;2023-02-26T02:57:16;1.90;99.90
38860;DHT22;24609;48.316;16.174;2023-02-26T02:59:48;1.90;99.90
38860;DHT22;24609;48.316;16.174;2023-02-26T03:02:24;1.90;99.90
38860;DHT22;24609;48.316;16.174;2023-02-26T03:04:51;1.90;99.90
38860;DHT22;24609;48.316;16.174;2023-02-26T03:07:17;1.80;99.90
38860;DHT22;24609;48.316;16.174;2023-02-26T03:09:43;1.80;99.90
38860;DHT22;24609;48.316;16.174;2023-02-26T03:12:09;1.70;99.90
38860;DHT22;24609;48.316;16.174;2023-02-26T03:14:35;1.60;99.90
38860;DHT22;24609;48.316;16.174;2023-02-26T03:17:23;1.60;99.90
38860;DHT22;24609;48.316;16.174;2023-02-26T03:22:50;1.60;99.90
38860;DHT22;24609;48.316;16.174;2023-02-26T03:25:25;1.60;99.90
38860;DHT22;24609;48.316;16.174;2023-02-26T03:36:26;1.60;99.90
38860;DHT22;24609;48.316;16.174;2023-02-26T03:38:48;1.60;99.90
38860;DHT22;24609;48.316;16.174;2023-02-26T03:41:32;1.50;99.90
38860;DHT22;24609;48.316;16.174;2023-02-26T03:44:04;1.50;99.90
38860;DHT22;24609;48.316;16.174;2023-02-26T03:46:36;1.50;99.90
38860;DHT22;24609;48.316;16.174;2023-02-26T03:49:11;1.50;99.90
38860;DHT22;24609;48.316;16.174;2023-02-26T03:51:39;1.50;99.90
38860;DHT22;24609;48.316;16.174;2023-02-26T03:54:29;1.50;99.90
38860;DHT22;24609;48.316;16.174;2023-02-26T03:56:55;1.50;99.90
38860;DHT22;24609;48.316;16.174;2023-02-26T03:59:21;1.50;99.90
38860;DHT22;24609;48.316;16.174;2023-02-26T04:02:06;1.50;99.90
38860;DHT22;24609;48.316;16.174;2023-02-26T04:04:54;1.60;99.90
38860;DHT22;24609;48.316;16.174;2023-02-26T04:07:21;1.60;99.90
38860;DHT22;24609;48.316;16.174;2023-02-26T04:09:48;1.60;99.90
38860;DHT22;24609;48.316;16.174;2023-02-26T04:12:15;1.60;99.90
38860;DHT22;24609;48.316;16.174;2023-02-26T04:14:44;1.60;99.90
38860;DHT22;24609;48.316;16.174;2023-02-26T04:17:10;1.60;99.90
38860;DHT22;24609;48.316;16.174;2023-02-26T04:19:35;1.60;99.90
38860;DHT22;24609;48.316;16.174;2023-02-26T04:22:01;1.60;99.90
38860;DHT22;24609;48.316;16.174;2023-02-26T04:24:27;1.70;99.90
38860;DHT22;24609;48.316;16.174;2023-02-26T04:26:52;1.70;99.90
38860;DHT22;24609;48.316;16.174;2023-02-26T04:29:18;1.70;99.90
38860;DHT22;24609;48.316;16.174;2023-02-26T04:31:44;1.70;99.90
38860;DHT22;24609;48.316;16.174;2023-02-26T04:34:09;1.60;99.90
38860;DHT22;24609;48.316;16.174;2023-02-26T04:36:35;1.60;99.90
38860;DHT22;24609;48.316;16.174;2023-02-26T04:39:00;1.60;99.90
38860;DHT22;24609;48.316;16.174;2023-02-26T04:41:27;1.60;99.90
38860;DHT22;24609;48.316;16.174;2023-02-26T04:43:52;1.60;99.90
38860;DHT22;24609;48.316;16.174;2023-02-26T04:46:18;1.60;99.90
38860;DHT22;24609;48.316;16.174;2023-02-26T04:48:43;1.50;99.90
38860;DHT22;24609;48.316;16.174;2023-02-26T04:51:09;1.50;99.90
38860;DHT22;24609;48.316;16.174;2023-02-26T04:53:35;1.50;99.90
38860;DHT22;24609;48.316;16.174;2023-02-26T04:56:01;1.50;99.90
38860;DHT22;24609;48.316;16.174;2023-02-26T04:58:26;1.50;99.90
38860;DHT22;24609;48.316;16.174;2023-02-26T05:00:52;1.50;99.90
38860;DHT22;24609;48.316;16.174;2023-02-26T05:03:19;1.50;99.90
38860;DHT22;24609;48.316;16.174;2023-02-26T05:05:45;1.50;99.90
38860;DHT22;24609;48.316;16.174;2023-02-26T05:08:11;1.60;99.90
38860;DHT22;24609;48.316;16.174;2023-02-26T05:10:37;1.50;99.90
38860;DHT22;24609;48.316;16.174;2023-02-26T05:13:02;1.50;99.90
38860;DHT22;24609;48.316;16.174;2023-02-26T05:15:28;1.50;99.90
38860;DHT22;24609;48.316;16.174;2023-02-26T05:17:54;1.50;99.90
38860;DHT22;24609;48.316;16.174;2023-02-26T05:20:19;1.50;99.90
38860;DHT22;24609;48.316;16.174;2023-02-26T05:22:45;1.50;99.90
38860;DHT22;24609;48.316;16.174;2023-02-26T05:25:11;1.50;99.90
38860;DHT22;24609;48.316;16.174;2023-02-26T05:27:38;1.50;99.90
38860;DHT22;24609;48.316;16.174;2023-02-26T05:30:05;1.50;99.90
38860;DHT22;24609;48.316;16.174;2023-02-26T05:32:31;1.50;99.90
38860;DHT22;24609;48.316;16.174;2023-02-26T05:34:57;1.50;99.90
38860;DHT22;24609;48.316;16.174;2023-02-26T05:37:23;1.50;99.90
38860;DHT22;24609;48.316;16.174;2023-02-26T05:39:48;1.40;99.90
38860;DHT22;24609;48.316;16.174;2023-02-26T05:42:14;1.40;99.90
38860;DHT22;24609;48.316;16.174;2023-02-26T05:44:40;1.50;99.90
38860;DHT22;24609;48.316;16.174;2023-02-26T05:47:06;1.60;99.90
38860;DHT22;24609;48.316;16.174;2023-02-26T05:49:32;1.60;99.90
38860;DHT22;24609;48.316;16.174;2023-02-26T05:51:57;1.60;99.90
38860;DHT22;24609;48.316;16.174;2023-02-26T05:54:23;1.60;99.90
38860;DHT22;24609;48.316;16.174;2023-02-26T05:56:49;1.60;99.90
38860;DHT22;24609;48.316;16.174;2023-02-26T05:59:15;1.60;99.90
38860;DHT22;24609;48.316;16.174;2023-02-26T06:01:40;1.60;99.90
38860;DHT22;24609;48.316;16.174;2023-02-26T06:04:07;1.60;99.90
38860;DHT22;24609;48.316;16.174;2023-02-26T06:06:33;1.50;99.90
38860;DHT22;24609;48.316;16.174;2023-02-26T06:08:59;1.40;99.90
38860;DHT22;24609;48.316;16.174;2023-02-26T06:11:27;1.50;99.90
38860;DHT22;24609;48.316;16.174;2023-02-26T06:13:53;1.50;99.90
38860;DHT22;24609;48.316;16.174;2023-02-26T06:16:18;1.50;99.90
38860;DHT22;24609;48.316;16.174;2023-02-26T06:18:45;1.50;99.90
38860;DHT22;24609;48.316;16.174;2023-02-26T06:21:11;1.50;99.90
38860;DHT22;24609;48.316;16.174;2023-02-26T06:23:36;1.60;99.90
38860;DHT22;24609;48.316;16.174;2023-02-26T06:26:02;1.60;99.90
38860;DHT22;24609;48.316;16.174;2023-02-26T06:28:28;1.50;99.90
38860;DHT22;24609;48.316;16.174;2023-02-26T06:30:54;1.40;99.90
38860;DHT22;24609;48.316;16.174;2023-02-26T06:33:20;1.40;99.90
38860;DHT22;24609;48.316;16.174;2023-02-26T06:35:45;1.30;99.90
38860;DHT22;24609;48.316;16.174;2023-02-26T06:38:12;1.30;99.90
38860;DHT22;24609;48.316;16.174;2023-02-26T06:40:37;1.30;99.90
38860;DHT22;24609;48.316;16.174;2023-02-26T06:43:03;1.40;99.90
38860;DHT22;24609;48.316;16.174;2023-02-26T06:45:29;1.50;99.90
38860;DHT22;24609;48.316;16.174;2023-02-26T06:47:55;1.60;99.90
38860;DHT22;24609;48.316;16.174;2023-02-26T06:50:20;1.60;99.90
38860;DHT22;24609;48.316;16.174;2023-02-26T06:52:46;1.60;99.90
38860;DHT22;24609;48.316;16.174;2023-02-26T06:55:12;1.50;99.90
38860;DHT22;24609;48.316;16.174;2023-02-26T06:57:37;1.50;99.90
38860;DHT22;24609;48.316;16.174;2023-02-26T07:00:05;1.60;99.90
38860;DHT22;24609;48.316;16.174;2023-02-26T07:02:31;1.30;99.90
38860;DHT22;24609;48.316;16.174;2023-02-26T07:04:56;1.40;99.90
38860;DHT22;24609;48.316;16.174;2023-02-26T07:07:22;1.40;99.90
38860;DHT22;24609;48.316;16.174;2023-02-26T07:09:48;1.40;99.90
38860;DHT22;24609;48.316;16.174;2023-02-26T07:12:14;1.50;99.90
38860;DHT22;24609;48.316;16.174;2023-02-26T07:14:40;1.40;99.90
38860;DHT22;24609;48.316;16.174;2023-02-26T07:17:07;1.50;99.90
38860;DHT22;24609;48.316;16.174;2023-02-26T07:19:34;1.70;99.90
38860;DHT22;24609;48.316;16.174;2023-02-26T07:22:00;1.90;99.90
38860;DHT22;24609;48.316;16.174;2023-02-26T07:24:25;2.00;99.90
38860;DHT22;24609;48.316;16.174;2023-02-26T07:26:51;2.20;99.90
38860;DHT22;24609;48.316;16.174;2023-02-26T07:29:17;2.20;99.90
38860;DHT22;24609;48.316;16.174;2023-02-26T07:31:43;2.20;99.90
38860;DHT22;24609;48.316;16.174;2023-02-26T07:34:08;2.30;99.90
38860;DHT22;24609;48.316;16.174;2023-02-26T07:36:34;2.10;99.90
38860;DHT22;24609;48.316;16.174;2023-02-26T07:39:00;2.50;99.90
38860;DHT22;24609;48.316;16.174;2023-02-26T07:41:26;2.70;99.90
38860;DHT22;24609;48.316;16.174;2023-02-26T07:43:52;3.10;99.90
38860;DHT22;24609;48.316;16.174;2023-02-26T07:46:17;3.10;99.90
38860;DHT22;24609;48.316;16.174;2023-02-26T07:48:43;3.40;99.90
38860;DHT22;24609;48.316;16.174;2023-02-26T07:51:08;3.50;99.90
38860;DHT22;24609;48.316;16.174;2023-02-26T07:53:35;3.50;99.90
38860;DHT22;24609;48.316;16.174;2023-02-26T07:56:01;3.50;99.90
38860;DHT22;24609;48.316;16.174;2023-02-26T07:58:27;4.10;99.90
38860;DHT22;24609;48.316;16.174;2023-02-26T08:00:53;4.60;99.90
38860;DHT22;24609;48.316;16.174;2023-02-26T08:03:19;4.80;99.90
38860;DHT22;24609;48.316;16.174;2023-02-26T08:05:45;5.00;99.90
38860;DHT22;24609;48.316;16.174;2023-02-26T08:08:11;5.20;99.90
38860;DHT22;24609;48.316;16.174;2023-02-26T08:10:37;5.10;99.90
38860;DHT22;24609;48.316;16.174;2023-02-26T08:13:03;4.50;99.90
38860;DHT22;24609;48.316;16.174;2023-02-26T08:15:29;4.60;99.90
38860;DHT22;24609;48.316;16.174;2023-02-26T08:17:55;4.30;99.90
38860;DHT22;24609;48.316;16.174;2023-02-26T08:20:21;4.40;99.90
38860;DHT22;24609;48.316;16.174;2023-02-26T08:22:48;4.00;99.90
38860;DHT22;24609;48.316;16.174;2023-02-26T08:25:14;3.60;99.90
38860;DHT22;24609;48.316;16.174;2023-02-26T08:27:40;3.30;99.90
38860;DHT22;24609;48.316;16.174;2023-02-26T08:30:06;4.10;99.90
38860;DHT22;24609;48.316;16.174;2023-02-26T08:32:33;5.20;99.90
38860;DHT22;24609;48.316;16.174;2023-02-26T08:34:59;6.10;99.90
38860;DHT22;24609;48.316;16.174;2023-02-26T08:37:24;7.10;99.90
38860;DHT22;24609;48.316;16.174;2023-02-26T08:39:51;7.40;99.90
38860;DHT22;24609;48.316;16.174;2023-02-26T08:42:17;6.80;99.90
38860;DHT22;24609;48.316;16.174;2023-02-26T08:44:45;6.90;99.90
38860;DHT22;24609;48.316;16.174;2023-02-26T08:47:11;6.30;99.90
38860;DHT22;24609;48.316;16.174;2023-02-26T08:49:36;5.40;99.90
38860;DHT22;24609;48.316;16.174;2023-02-26T08:52:03;5.80;99.90
38860;DHT22;24609;48.316;16.174;2023-02-26T08:54:29;5.70;99.90
38860;DHT22;24609;48.316;16.174;2023-02-26T08:56:55;5.50;99.90
38860;DHT22;24609;48.316;16.174;2023-02-26T08:59:23;5.40;99.90
38860;DHT22;24609;48.316;16.174;2023-02-26T09:01:48;5.80;99.90
38860;DHT22;24609;48.316;16.174;2023-02-26T09:04:14;5.90;99.90
38860;DHT22;24609;48.316;16.174;2023-02-26T09:06:40;5.90;99.90
38860;DHT22;24609;48.316;16.174;2023-02-26T09:09:05;6.00;99.90
38860;DHT22;24609;48.316;16.174;2023-02-26T09:11:31;5.80;99.90
38860;DHT22;24609;48.316;16.174;2023-02-26T09:13:57;6.90;99.90
38860;DHT22;24609;48.316;16.174;2023-02-26T09:16:28;7.60;99.90
38860;DHT22;24609;48.316;16.174;2023-02-26T09:18:55;8.80;98.30
38860;DHT22;24609;48.316;16.174;2023-02-26T09:21:21;9.30;97.70
38860;DHT22;24609;48.316;16.174;2023-02-26T09:23:47;10.10;94.50
38860;DHT22;24609;48.316;16.174;2023-02-26T09:26:13;8.50;95.30
38860;DHT22;24609;48.316;16.174;2023-02-26T09:28:39;7.60;98.50
38860;DHT22;24609;48.316;16.174;2023-02-26T09:31:05;7.20;98.90
38860;DHT22;24609;48.316;16.174;2023-02-26T09:33:34;6.40;99.90
38860;DHT22;24609;48.316;16.174;2023-02-26T09:36:00;5.50;99.90
38860;DHT22;24609;48.316;16.174;2023-02-26T09:38:26;5.30;99.90
38860;DHT22;24609;48.316;16.174;2023-02-26T09:41:07;4.80;99.90
38860;DHT22;24609;48.316;16.174;2023-02-26T09:49:49;7.50;99.60
38860;DHT22;24609;48.316;16.174;2023-02-26T09:51:56;6.80;99.90
38860;DHT22;24609;48.316;16.174;2023-02-26T09:54:31;9.10;95.50
38860;DHT22;24609;48.316;16.174;2023-02-26T09:56:59;9.30;90.50
38860;DHT22;24609;48.316;16.174;2023-02-26T09:59:31;6.80;95.50
38860;DHT22;24609;48.316;16.174;2023-02-26T10:02:13;5.60;99.00
38860;DHT22;24609;48.316;16.174;2023-02-26T10:05:30;7.20;98.50
38860;DHT22;24609;48.316;16.174;2023-02-26T10:07:45;11.50;90.90
38860;DHT22;24609;48.316;16.174;2023-02-26T10:12:56;8.60;90.40
38860;DHT22;24609;48.316;16.174;2023-02-26T10:15:29;7.50;92.80
38860;DHT22;24609;48.316;16.174;2023-02-26T10:23:10;5.30;98.00
38860;DHT22;24609;48.316;16.174;2023-02-26T10:25:41;4.80;99.30
38860;DHT22;24609;48.316;16.174;2023-02-26T10:31:21;5.10;99.90
38860;DHT22;24609;48.316;16.174;2023-02-26T10:38:48;14.40;10.70
38860;DHT22;24609;48.316;16.174;2023-02-26T10:41:19;10.00;1.00
38860;DHT22;24609;48.316;16.174;2023-02-26T10:43:54;7.30;12.20
38860;DHT22;24609;48.316;16.174;2023-02-26T10:46:36;5.70;99.90
38860;DHT22;24609;48.316;16.174;2023-02-26T10:51:46;5.20;94.60
38860;DHT22;24609;48.316;16.174;2023-02-26T10:54:40;5.10;94.00
38860;DHT22;24609;48.316;16.174;2023-02-26T10:57:03;6.70;94.20
38860;DHT22;24609;48.316;16.174;2023-02-26T10:59:30;6.00;94.10
38860;DHT22;24609;48.316;16.174;2023-02-26T11:01:56;5.60;95.10
38860;DHT22;24609;48.316;16.174;2023-02-26T11:04:25;5.50;96.90
38860;DHT22;24609;48.316;16.174;2023-02-26T11:07:01;5.40;95.50
38860;DHT22;24609;48.316;16.174;2023-02-26T11:09:41;5.60;94.40
38860;DHT22;24609;48.316;16.174;2023-02-26T11:14:37;5.90;94.20
38860;DHT22;24609;48.316;16.174;2023-02-26T11:17:09;5.50;94.70
38860;DHT22;24609;48.316;16.174;2023-02-26T11:19:41;5.10;93.90
38860;DHT22;24609;48.316;16.174;2023-02-26T11:22:12;9.40;92.60
38860;DHT22;24609;48.316;16.174;2023-02-26T11:24:45;15.30;49.10
38860;DHT22;24609;48.316;16.174;2023-02-26T11:27:41;13.40;1.00
38860;DHT22;24609;48.316;16.174;2023-02-26T11:30:29;7.50;89.50
38860;DHT22;24609;48.316;16.174;2023-02-26T11:32:57;5.40;96.70
38860;DHT22;24609;48.316;16.174;2023-02-26T11:35:24;5.00;99.90
38860;DHT22;24609;48.316;16.174;2023-02-26T11:37:59;5.00;99.90
38860;DHT22;24609;48.316;16.174;2023-02-26T11:40:46;4.30;99.90
38860;DHT22;24609;48.316;16.174;2023-02-26T11:43:17;4.20;99.90
38860;DHT22;24609;48.316;16.174;2023-02-26T11:45:57;4.30;99.90
38860;DHT22;24609;48.316;16.174;2023-02-26T11:48:27;4.10;1.00
38860;DHT22;24609;48.316;16.174;2023-02-26T11:50:58;4.70;99.90
38860;DHT22;24609;48.316;16.174;2023-02-26T11:54:02;5.20;72.40
38860;DHT22;24609;48.316;16.174;2023-02-26T11:56:41;5.00;99.90
38860;DHT22;24609;48.316;16.174;2023-02-26T12:01:43;6.00;99.90
38860;DHT22;24609;48.316;16.174;2023-02-26T12:04:12;6.70;99.90
38860;DHT22;24609;48.316;16.174;2023-02-26T12:06:39;7.30;99.80
38860;DHT22;24609;48.316;16.174;2023-02-26T12:09:12;7.70;98.90
38860;DHT22;24609;48.316;16.174;2023-02-26T12:39:19;4.70;99.90
38860;DHT22;24609;48.316;16.174;2023-02-26T12:47:30;5.10;99.90
38860;DHT22;24609;48.316;16.174;2023-02-26T12:53:04;5.10;99.90
38860;DHT22;24609;48.316;16.174;2023-02-26T12:58:32;5.60;99.90
38860;DHT22;24609;48.316;16.174;2023-02-26T13:01:11;6.10;99.90
38860;DHT22;24609;48.316;16.174;2023-02-26T13:14:39;4.90;39.40
38860;DHT22;24609;48.316;16.174;2023-02-26T13:22:40;2.90;1.00
38860;DHT22;24609;48.316;16.174;2023-02-26T13:27:47;3.80;1.00
38860;DHT22;24609;48.316;16.174;2023-02-26T13:30:24;4.10;99.90
38860;DHT22;24609;48.316;16.174;2023-02-26T13:32:53;4.10;99.90
38860;DHT22;24609;48.316;16.174;2023-02-26T13:35:32;4.30;99.90
38860;DHT22;24609;48.316;16.174;2023-02-26T13:38:00;4.60;99.90
38860;DHT22;24609;48.316;16.174;2023-02-26T13:49:01;4.80;99.90
38860;DHT22;24609;48.316;16.174;2023-02-26T13:51:40;4.70;99.90
38860;DHT22;24609;48.316;16.174;2023-02-26T14:12:34;5.40;99.90
38860;DHT22;24609;48.316;16.174;2023-02-26T14:17:38;5.00;99.90
38860;DHT22;24609;48.316;16.174;2023-02-26T14:22:41;4.60;99.90
38860;DHT22;24609;48.316;16.174;2023-02-26T14:31:25;4.60;99.90
38860;DHT22;24609;48.316;16.174;2023-02-26T14:36:46;4.60;99.90
38860;DHT22;24609;48.316;16.174;2023-02-26T14:39:29;4.60;99.90
38860;DHT22;24609;48.316;16.174;2023-02-26T14:42:18;4.60;99.90
38860;DHT22;24609;48.316;16.174;2023-02-26T14:44:49;4.50;99.90
38860;DHT22;24609;48.316;16.174;2023-02-26T14:47:18;4.50;99.90
38860;DHT22;24609;48.316;16.174;2023-02-26T14:49:46;4.60;99.90
38860;DHT22;24609;48.316;16.174;2023-02-26T15:10:21;3.20;99.90
38860;DHT22;24609;48.316;16.174;2023-02-26T15:15:35;2.30;99.90
38860;DHT22;24609;48.316;16.174;2023-02-26T15:23:38;1.90;99.90
38860;DHT22;24609;48.316;16.174;2023-02-26T15:26:06;1.90;1.00
38860;DHT22;24609;48.316;16.174;2023-02-26T15:28:39;2.10;1.00
38860;DHT22;24609;48.316;16.174;2023-02-26T15:31:09;2.20;99.90
38860;DHT22;24609;48.316;16.174;2023-02-26T15:33:35;2.30;99.90
38860;DHT22;24609;48.316;16.174;2023-02-26T15:36:07;2.40;99.90
38860;DHT22;24609;48.316;16.174;2023-02-26T15:38:45;2.40;99.90
38860;DHT22;24609;48.316;16.174;2023-02-26T15:41:12;2.40;99.90
38860;DHT22;24609;48.316;16.174;2023-02-26T15:43:40;2.50;99.90
38860;DHT22;24609;48.316;16.174;2023-02-26T15:46:08;2.40;99.90
38860;DHT22;24609;48.316;16.174;2023-02-26T15:48:36;2.50;99.90
38860;DHT22;24609;48.316;16.174;2023-02-26T15:51:05;2.60;99.90
38860;DHT22;24609;48.316;16.174;2023-02-26T15:53:37;2.50;99.90
38860;DHT22;24609;48.316;16.174;2023-02-26T15:56:14;2.50;99.90
38860;DHT22;24609;48.316;16.174;2023-02-26T15:58:50;2.60;99.90
38860;DHT22;24609;48.316;16.174;2023-02-26T16:01:22;2.60;99.90
38860;DHT22;24609;48.316;16.174;2023-02-26T16:03:57;2.60;99.90
38860;DHT22;24609;48.316;16.174;2023-02-26T16:06:36;2.50;99.90
38860;DHT22;24609;48.316;16.174;2023-02-26T16:09:04;2.50;99.90
38860;DHT22;24609;48.316;16.174;2023-02-26T16:11:35;2.40;99.90
38860;DHT22;24609;48.316;16.174;2023-02-26T16:14:03;2.40;99.90
38860;DHT22;24609;48.316;16.174;2023-02-26T16:16:44;2.40;99.90
38860;DHT22;24609;48.316;16.174;2023-02-26T16:21:57;2.40;99.90
38860;DHT22;24609;48.316;16.174;2023-02-26T16:24:25;2.30;99.90
38860;DHT22;24609;48.316;16.174;2023-02-26T16:26:56;2.30;99.90
38860;DHT22;24609;48.316;16.174;2023-02-26T16:29:27;2.40;99.90
38860;DHT22;24609;48.316;16.174;2023-02-26T16:32:00;2.30;99.90
38860;DHT22;24609;48.316;16.174;2023-02-26T16:34:40;2.30;99.90
38860;DHT22;24609;48.316;16.174;2023-02-26T16:42:45;2.20;99.90
38860;DHT22;24609;48.316;16.174;2023-02-26T16:48:13;2.10;99.90
38860;DHT22;24609;48.316;16.174;2023-02-26T16:50:40;2.10;99.90
38860;DHT22;24609;48.316;16.174;2023-02-26T16:53:14;2.00;99.90
38860;DHT22;24609;48.316;16.174;2023-02-26T16:55:42;2.00;99.90
38860;DHT22;24609;48.316;16.174;2023-02-26T16:58:13;1.90;99.90
38860;DHT22;24609;48.316;16.174;2023-02-26T17:00:43;1.90;99.90
38860;DHT22;24609;48.316;16.174;2023-02-26T17:03:13;1.80;99.90
38860;DHT22;24609;48.316;16.174;2023-02-26T17:05:48;1.70;99.90
38860;DHT22;24609;48.316;16.174;2023-02-26T17:08:18;1.70;99.90
38860;DHT22;24609;48.316;16.174;2023-02-26T17:10:48;1.80;99.90
38860;DHT22;24609;48.316;16.174;2023-02-26T17:15:48;1.80;99.90
38860;DHT22;24609;48.316;16.174;2023-02-26T17:18:15;1.80;99.90
38860;DHT22;24609;48.316;16.174;2023-02-26T17:20:42;1.90;99.90
38860;DHT22;24609;48.316;16.174;2023-02-26T17:23:09;1.90;99.90
38860;DHT22;24609;48.316;16.174;2023-02-26T17:25:39;1.80;99.90
38860;DHT22;24609;48.316;16.174;2023-02-26T17:28:07;1.90;99.90
38860;DHT22;24609;48.316;16.174;2023-02-26T17:30:34;1.90;99.90
38860;DHT22;24609;48.316;16.174;2023-02-26T17:33:01;1.80;99.90
38860;DHT22;24609;48.316;16.174;2023-02-26T17:35:29;1.80;99.90
38860;DHT22;24609;48.316;16.174;2023-02-26T17:37:56;1.80;99.90
38860;DHT22;24609;48.316;16.174;2023-02-26T17:40:28;1.80;99.90
38860;DHT22;24609;48.316;16.174;2023-02-26T17:42:56;1.70;99.90
38860;DHT22;24609;48.316;16.174;2023-02-26T17:45:22;1.70;99.90
38860;DHT22;24609;48.316;16.174;2023-02-26T17:47:48;1.70;99.90
38860;DHT22;24609;48.316;16.174;2023-02-26T17:52:47;1.60;99.90
38860;DHT22;24609;48.316;16.174;2023-02-26T17:55:13;1.70;99.90
38860;DHT22;24609;48.316;16.174;2023-02-26T17:57:38;1.70;99.90
38860;DHT22;24609;48.316;16.174;2023-02-26T18:00:04;1.70;99.90
38860;DHT22;24609;48.316;16.174;2023-02-26T18:02:30;1.60;99.90
38860;DHT22;24609;48.316;16.174;2023-02-26T18:04:56;1.60;99.90
38860;DHT22;24609;48.316;16.174;2023-02-26T18:07:23;1.70;99.90
38860;DHT22;24609;48.316;16.174;2023-02-26T18:09:49;1.70;99.90
38860;DHT22;24609;48.316;16.174;2023-02-26T18:12:17;1.80;99.90
38860;DHT22;24609;48.316;16.174;2023-02-26T18:14:43;1.80;99.90
38860;DHT22;24609;48.316;16.174;2023-02-26T18:17:34;1.80;99.90
38860;DHT22;24609;48.316;16.174;2023-02-26T18:19:59;1.80;99.90
38860;DHT22;24609;48.316;16.174;2023-02-26T18:22:25;1.70;99.90
38860;DHT22;24609;48.316;16.174;2023-02-26T18:24:53;1.70;99.90
38860;DHT22;24609;48.316;16.174;2023-02-26T18:27:21;1.70;99.90
38860;DHT22;24609;48.316;16.174;2023-02-26T18:29:47;1.60;99.90
38860;DHT22;24609;48.316;16.174;2023-02-26T18:32:15;1.50;99.90
38860;DHT22;24609;48.316;16.174;2023-02-26T18:34:42;1.40;99.90
38860;DHT22;24609;48.316;16.174;2023-02-26T18:37:19;1.40;99.90
38860;DHT22;24609;48.316;16.174;2023-02-26T18:39:45;1.40;99.90
38860;DHT22;24609;48.316;16.174;2023-02-26T18:42:29;1.40;99.90
38860;DHT22;24609;48.316;16.174;2023-02-26T18:44:57;1.50;99.90
38860;DHT22;24609;48.316;16.174;2023-02-26T18:47:22;1.50;99.90
38860;DHT22;24609;48.316;16.174;2023-02-26T18:49:49;1.50;99.90
38860;DHT22;24609;48.316;16.174;2023-02-26T18:52:15;1.40;99.90
38860;DHT22;24609;48.316;16.174;2023-02-26T18:54:41;1.50;99.90
38860;DHT22;24609;48.316;16.174;2023-02-26T18:57:08;1.50;99.90
38860;DHT22;24609;48.316;16.174;2023-02-26T18:59:34;1.50;99.90
38860;DHT22;24609;48.316;16.174;2023-02-26T19:02:01;1.50;99.90
38860;DHT22;24609;48.316;16.174;2023-02-26T19:04:27;1.50;99.90
38860;DHT22;24609;48.316;16.174;2023-02-26T19:06:53;1.50;99.90
38860;DHT22;24609;48.316;16.174;2023-02-26T19:09:18;1.60;99.90
38860;DHT22;24609;48.316;16.174;2023-02-26T19:11:44;1.60;99.90
38860;DHT22;24609;48.316;16.174;2023-02-26T19:14:10;1.50;99.90
38860;DHT22;24609;48.316;16.174;2023-02-26T19:16:36;1.40;99.90
38860;DHT22;24609;48.316;16.174;2023-02-26T19:19:05;1.40;99.90
38860;DHT22;24609;48.316;16.174;2023-02-26T19:21:33;1.40;99.90
38860;DHT22;24609;48.316;16.174;2023-02-26T19:24:01;1.40;99.90